N0,26 Fumimaru — JK5398 — position and weather

sailwx.info

Track history (hours):
 
Tides and Currents Weather Stations Pressure Air Temp Water Temp Dewpoint Dewpoint Depression Visibility Wind Speed Wind Dir Waves Ship Positions

N0,26 Fumimaru

Last reported at 2017-May-29 11:28 UTC. Time now 2017-Jun-26 17:36 UTC.
Position N 34°60' E 139°44'.
Warning: this ship's position is 28 days out of date.

Length 39 m.

Type: Ship. MMSI: 431400427.

Date/timePositionNaut miles runAvg speedWind from/ knotsBaromVisibWave heightAir tempDewpointWater temp
2017-May-29 11:28N 34°60' E 139°44'4 7.0
2017-May-29 10:56N 35°03' E 139°44'3 7.1
2017-May-29 10:30N 35°06' E 139°44'4 7.3
2017-May-29 10:00N 35°10' E 139°45'4 7.0
2017-May-29 09:30N 35°14' E 139°45'  
2017-May-23 21:13N 35°18' E 139°42'410.0
2017-May-23 20:51N 35°22' E 139°41'3 0.4
2017-May-23 13:39N 35°23' E 139°38'0 0.0
2017-May-23 04:21N 35°23' E 139°38'1 2.7
2017-May-23 03:59N 35°24' E 139°39'13 7.6
2017-May-23 02:16N 35°13' E 139°47'3 7.8
2017-May-23 01:51N 35°09' E 139°47'3 7.2
2017-May-23 01:30N 35°07' E 139°47'5 8.8
2017-May-23 00:58N 35°02' E 139°45'  
Track history (hours):
 
Tides and Currents Weather Stations Pressure Air Temp Water Temp Dewpoint Dewpoint Depression Visibility Wind Speed Wind Dir Waves Ship Positions

N0,26 Fumimaru

Last reported at 2017-May-29 11:28 UTC. Time now 2017-Jun-26 17:36 UTC.
Position N 34°60' E 139°44'.
Warning: this ship's position is 28 days out of date.

Length 39 m.

Type: Ship. MMSI: 431400427.

Date/timePositionNaut miles runAvg speedWind from/ knotsBaromVisibWave heightAir tempDewpointWater temp
2017-May-29 11:28N 34°60' E 139°44'4 7.0
2017-May-29 10:56N 35°03' E 139°44'3 7.1
2017-May-29 10:30N 35°06' E 139°44'4 7.3
2017-May-29 10:00N 35°10' E 139°45'4 7.0
2017-May-29 09:30N 35°14' E 139°45'  
2017-May-23 21:13N 35°18' E 139°42'410.0
2017-May-23 20:51N 35°22' E 139°41'3 0.4
2017-May-23 13:39N 35°23' E 139°38'0 0.0
2017-May-23 04:21N 35°23' E 139°38'1 2.7
2017-May-23 03:59N 35°24' E 139°39'13 7.6
2017-May-23 02:16N 35°13' E 139°47'3 7.8
2017-May-23 01:51N 35°09' E 139°47'3 7.2
2017-May-23 01:30N 35°07' E 139°47'5 8.8
2017-May-23 00:58N 35°02' E 139°45'  

Dump ship's entire track history